Flight Track Log - Related Links

Times and Time Zones

All times are in EDT time to prevent confusion due to time zone crossing. See the EJA695 flight status page for this flight to view local times or setup timezone preferences in your user account.

Time Position Orientation Groundspeed Altitude Reporting Facility
EDT Latitude Longitude Course Direction KTS MPH feet Rate Location/Type
Sat 10:10:09 AM 40.9667 -72.5000 287° West 221 254 6,000  Level New York TRACON
Sat 10:11:09 AM 41.0000 -72.5833 298° West 245 282 6,000  Level New York TRACON
Sat 10:12:09 AM 41.0167 -72.6667 285° West 240 276 6,000  Level New York TRACON
Sat 10:13:09 AM 41.0500 -72.7500 298° West 236 272 6,000  Level New York TRACON
Sat 10:14:03 AM 41.0667 -72.8167 288° West 236 272 6,000 -684 Level New York TRACON
Sat 10:15:00 AM 41.0707 -72.7706 287° West  Level FlightAware Approximate
Sat 10:15:03 AM 41.0833 -72.9000 285° West 233 268 4,700  Level New York TRACON
Sat 10:16:04 AM 41.1167 -72.9667 304° West 221 254 4,000 -347 Descending New York TRACON
Sat 10:17:04 AM 41.1333 -73.0500 285° West 212 244 4,000  Level New York TRACON
Sat 10:18:04 AM 41.1500 -73.1167 288° West 222 255 4,000  Level New York TRACON
Sat 10:19:04 AM 41.1667 -73.2000 285° West 224 258 4,000  Level New York TRACON
Sat 10:20:04 AM 41.1667 -73.2833 270° West 229 264 4,000  Level New York TRACON
Sat 10:21:04 AM 41.1833 -73.3667 285° West 228 262 4,000 -450 Level New York TRACON
Sat 10:22:04 AM 41.1833 -73.4500 270° West 234 269 3,100 -476 Descending New York TRACON
Sat 10:23:10 AM 41.1833 -73.5333 270° West 242 278 3,000 -48 Descending New York TRACON
Sat 10:24:09 AM 41.1000 -73.5500 189° South 260 299 3,000  Level New York TRACON
Sat 10:25:10 AM 41.0333 -73.5500 180° South 247 284 3,000  Level New York TRACON
Sat 10:26:04 AM 40.9833 -73.5833 207° Southwest 242 278 3,000 -50 Level New York TRACON
Sat 10:27:10 AM 41.0000 -73.6667 285° West 188 216 2,900 -1,000 Descending New York TRACON
Sat 10:28:04 AM 41.0333 -73.6833 339° North 148 170 1,000 -2,111 Descending New York TRACON
Sat 10:30:00 AM 41.0667 -73.7000 236° Southwest  Level FlightAware Approximate
Sat 10:37:00 AM 41.0669 -73.7076 236° Southwest  Level Estimated

Login

Don't have an account? Register now (free) for customized features, flight alerts, and more!